Marmaduke, Arkansas
Current Conditions -  °F | °C
As of 3:15 PM on Sunday 21 Dec 2014 (Local Time) from K4M9 Reporting Station
Few Clouds Few Clouds  
Wind Chill:   Ceiling: Unl
Heat Index:   Visibility: 8mi
Dew Point:   Wind: 7mph
Humidity: 66%   Direction: 60°ENE
Pressure: 30.05"   Gusts: NA
Location:  36.19°N, 90.38°W
Report Text: K4M9 212115Z AUTO 06006KT 8SM FEW043 07/01 A3005 RMK AO2
Loading
Personal Weather Stations






























Interactive Weather Map New forecast layout! Learn more

10-Day Weather Forecast

Advertisements
Track Severe Weather on mobile